Terminal Aerodrome Forecast
Issued by NWS

Home | Current Version | Previous Version | Text Only | Print | Product List | Glossary On
Versions: 1 2 3 4 5 6 7 8 9 10 11 12
269
FTUS43 KSGF 111125
TAFJLN
TAF
KJLN 111125Z 1112/1212 21010KT P6SM SKC
     FM111500 27016G24KT P6SM SKC
     FM111800 30020G30KT P6SM FEW250
     FM112300 33015G22KT P6SM BKN150
     FM120500 32010KT P6SM SCT250=

USA.gov is the U.S. government's official web portal to all federal, state and local government web resources and services.